KMOB/MOB METAR and TAF weather

Enter ICAO airport designator
Station Type Date Time Source
KMOB METAR 2024/06/15 22:56 UTC NOAA

KMOB 152256Z 15008KT 10SM FEW050 FEW100 34/19 A2991 RMK AO2 SLP126 T03390194


Station Type Date Time Source
KMOB Decoded METAR 2024/06/15 22:56 UTC NOAA

MOBILE REGIONAL AIRPORT, AL, United States (KMOB) 30-41N 88-14W 67M
Jun 15, 2024 - 06:56 PM EDT / 2024.06.15 2256 UTC
Wind: from the SSE (150 degrees) at 9 MPH (8 KT):0
Visibility: 10 mile(s):0
Sky conditions: mostly clear
Temperature: 93.0 F (33.9 C)
Heat index: 96.4 F (35.8 C):1
Dew Point: 66.9 F (19.4 C)
Relative Humidity: 42%
Pressure (altimeter): 29.91 in. Hg (1012 hPa)
ob: KMOB 152256Z 15008KT 10SM FEW050 FEW100 34/19 A2991 RMK AO2 SLP126 T03390194
cycle: 23

Station Type Date Time Source
KMOB TAF 2024/06/15 18:39 UTC NOAA